Time;durP1;ratioP1;P1;durP2;ratioP2;P2;SDS_P1;SDS_P2;PMS_P1;PMS_P2;Temp;Humidity;BMP_temperature;BMP_pressure;BME280_temperature;BME280_humidity;BME280_pressure;Samples;Min_cycle;Max_cycle;Signal;HPM_P1;HPM_P2
2023/09/24 00:01:03;;;;;;;6.05;2.97;;;;;;;;;;5091415;28;20020;-67
2023/09/24 00:03:29;;;;;;;5.22;2.92;;;;;;;;;;5092066;28;20069;-67
2023/09/24 00:05:54;;;;;;;7.05;3.22;;;;;;;;;;5092255;28;20498;-68
2023/09/24 00:08:20;;;;;;;5.63;3.00;;;;;;;;;;5092168;28;20032;-67
2023/09/24 00:10:49;;;;;;;6.07;2.92;;;;;;;;;;5092017;28;20032;-67
2023/09/24 00:13:15;;;;;;;5.35;2.88;;;;;;;;;;5092435;28;20044;-67
2023/09/24 00:15:40;;;;;;;6.20;3.42;;;;;;;;;;5091509;28;20036;-67
2023/09/24 00:18:05;;;;;;;5.38;3.05;;;;;;;;;;5091610;28;20069;-68
2023/09/24 00:20:31;;;;;;;4.65;2.90;;;;;;;;;;5091250;28;20015;-67
2023/09/24 00:22:57;;;;;;;5.95;2.92;;;;;;;;;;5080567;28;20062;-67
2023/09/24 00:25:23;;;;;;;7.38;2.60;;;;;;;;;;5080892;28;20051;-67
2023/09/24 00:27:48;;;;;;;4.72;2.70;;;;;;;;;;5081137;28;20052;-67
2023/09/24 00:30:14;;;;;;;4.30;2.60;;;;;;;;;;5083350;28;20418;-67
2023/09/24 00:32:39;;;;;;;5.88;3.47;;;;;;;;;;5073838;28;20116;-68
2023/09/24 00:35:05;;;;;;;5.15;2.83;;;;;;;;;;5085015;28;20060;-67
2023/09/24 00:37:32;;;;;;;5.38;2.70;;;;;;;;;;5073259;28;20031;-67
2023/09/24 00:39:57;;;;;;;4.22;1.98;;;;;;;;;;5076188;28;20374;-67
2023/09/24 00:42:27;;;;;;;3.92;2.70;;;;;;;;;;5074130;28;20115;-67
2023/09/24 00:44:52;;;;;;;5.55;2.90;;;;;;;;;;5073830;28;20028;-67
2023/09/24 00:47:17;;;;;;;5.50;2.95;;;;;;;;;;5089459;28;20038;-68
2023/09/24 00:49:42;;;;;;;6.07;3.08;;;;;;;;;;5077311;28;20024;-69
2023/09/24 00:52:09;;;;;;;5.35;2.97;;;;;;;;;;5078743;28;20035;-68
2023/09/24 00:54:34;;;;;;;5.70;3.13;;;;;;;;;;5085038;28;20106;-68
2023/09/24 00:57:00;;;;;;;5.22;3.00;;;;;;;;;;5084828;28;20478;-68
2023/09/24 00:59:28;;;;;;;4.30;2.78;;;;;;;;;;5084303;28;20158;-68
2023/09/24 01:01:53;;;;;;;5.40;3.35;;;;;;;;;;5060582;28;20166;-68
2023/09/24 01:04:18;;;;;;;5.03;2.78;;;;;;;;;;5083591;28;20516;-68
2023/09/24 01:06:44;;;;;;;4.97;2.70;;;;;;;;;;5081665;28;20028;-67
2023/09/24 01:09:13;;;;;;;4.88;2.97;;;;;;;;;;5091401;28;20102;-67
2023/09/24 01:11:38;;;;;;;5.80;2.88;;;;;;;;;;5078655;28;20020;-67
2023/09/24 01:14:04;;;;;;;4.85;2.70;;;;;;;;;;5090193;28;20031;-67
2023/09/24 01:16:32;;;;;;;7.57;2.78;;;;;;;;;;5090709;28;20074;-67
2023/09/24 01:18:57;;;;;;;6.10;2.85;;;;;;;;;;5090662;28;20401;-68
2023/09/24 01:21:25;;;;;;;4.95;2.67;;;;;;;;;;5083766;28;20070;-68
2023/09/24 01:23:51;;;;;;;10.20;3.60;;;;;;;;;;5090917;28;20032;-67
2023/09/24 01:26:17;;;;;;;9.25;3.88;;;;;;;;;;5086587;28;20035;-67
2023/09/24 01:28:43;;;;;;;5.68;3.50;;;;;;;;;;5086484;28;20462;-67
2023/09/24 01:31:08;;;;;;;8.00;3.35;;;;;;;;;;5093934;28;20081;-67
2023/09/24 01:33:36;;;;;;;7.85;3.63;;;;;;;;;;5091800;28;20043;-67
2023/09/24 01:36:02;;;;;;;6.57;3.30;;;;;;;;;;5093120;28;20024;-67
2023/09/24 01:38:27;;;;;;;6.88;3.53;;;;;;;;;;5090998;28;20031;-67
2023/09/24 01:40:54;;;;;;;5.38;3.70;;;;;;;;;;5090851;28;20032;-67
2023/09/24 01:43:19;;;;;;;5.60;3.33;;;;;;;;;;5094528;28;20111;-67
2023/09/24 01:45:44;;;;;;;5.30;3.58;;;;;;;;;;5080070;28;20111;-67
2023/09/24 01:48:09;;;;;;;9.32;4.25;;;;;;;;;;5081162;28;20023;-69
2023/09/24 01:50:36;;;;;;;5.35;3.70;;;;;;;;;;5083621;28;20029;-68
2023/09/24 01:53:02;;;;;;;9.05;3.90;;;;;;;;;;5081686;28;20111;-67
2023/09/24 01:55:27;;;;;;;7.20;3.95;;;;;;;;;;5078278;28;20408;-68
2023/09/24 01:57:53;;;;;;;6.35;3.63;;;;;;;;;;5081267;28;20104;-68
2023/09/24 02:00:23;;;;;;;6.80;4.18;;;;;;;;;;5081282;28;20074;-68
2023/09/24 02:02:52;;;;;;;8.50;4.00;;;;;;;;;;5081658;28;20050;-68
2023/09/24 02:05:19;;;;;;;8.60;4.00;;;;;;;;;;5092491;28;20032;-68
2023/09/24 02:07:45;;;;;;;8.98;3.75;;;;;;;;;;5093811;28;20051;-68
2023/09/24 02:10:13;;;;;;;7.65;3.63;;;;;;;;;;5093489;28;20028;-68
2023/09/24 02:12:39;;;;;;;8.27;4.28;;;;;;;;;;5081548;28;20050;-68
2023/09/24 02:15:12;;;;;;;7.72;4.28;;;;;;;;;;5082131;28;20471;-67
2023/09/24 02:17:41;;;;;;;6.13;3.97;;;;;;;;;;5084327;28;20032;-68
2023/09/24 02:20:15;;;;;;;8.00;4.57;;;;;;;;;;5090523;28;20020;-68
2023/09/24 02:22:40;;;;;;;7.90;3.47;;;;;;;;;;5093863;28;20517;-68
2023/09/24 02:25:06;;;;;;;7.20;4.28;;;;;;;;;;5088548;28;20107;-68
2023/09/24 02:27:33;;;;;;;8.32;4.35;;;;;;;;;;5073876;28;20032;-68
2023/09/24 02:30:05;;;;;;;7.47;4.03;;;;;;;;;;5093339;28;20447;-68
2023/09/24 02:32:32;;;;;;;9.40;4.10;;;;;;;;;;5080428;28;20479;-67
2023/09/24 02:34:57;;;;;;;5.95;3.70;;;;;;;;;;5073343;28;20028;-68
2023/09/24 02:37:22;;;;;;;6.15;3.33;;;;;;;;;;5073585;28;20025;-68
2023/09/24 02:39:48;;;;;;;6.55;3.92;;;;;;;;;;5074067;28;20074;-67
2023/09/24 02:42:14;;;;;;;7.57;3.88;;;;;;;;;;5073222;28;20020;-68
2023/09/24 02:44:39;;;;;;;6.50;3.53;;;;;;;;;;5092011;28;20073;-67
2023/09/24 02:47:07;;;;;;;8.65;3.30;;;;;;;;;;5092276;28;20016;-67
2023/09/24 02:49:32;;;;;;;5.13;3.80;;;;;;;;;;5086905;28;20037;-67
2023/09/24 02:51:57;;;;;;;6.80;3.22;;;;;;;;;;5082877;28;20100;-68
2023/09/24 02:54:23;;;;;;;4.82;2.85;;;;;;;;;;5090045;28;20062;-67
2023/09/24 02:56:48;;;;;;;5.40;3.20;;;;;;;;;;5091957;28;20024;-67
2023/09/24 02:59:14;;;;;;;7.55;3.83;;;;;;;;;;5089993;28;20085;-68
2023/09/24 03:01:40;;;;;;;6.97;3.33;;;;;;;;;;5080566;28;20049;-68
2023/09/24 03:04:07;;;;;;;10.10;3.15;;;;;;;;;;5091968;28;20031;-68
2023/09/24 03:06:33;;;;;;;6.07;3.05;;;;;;;;;;5093281;28;20046;-68
2023/09/24 03:08:58;;;;;;;5.13;2.72;;;;;;;;;;5091805;28;20758;-68
2023/09/24 03:11:23;;;;;;;5.95;3.20;;;;;;;;;;5093258;28;20062;-68
2023/09/24 03:13:48;;;;;;;6.38;3.58;;;;;;;;;;5092741;28;20020;-69
2023/09/24 03:16:14;;;;;;;7.00;3.08;;;;;;;;;;5075240;28;20039;-69
2023/09/24 03:18:39;;;;;;;7.10;4.00;;;;;;;;;;5079516;28;20028;-69
2023/09/24 03:21:04;;;;;;;8.57;3.58;;;;;;;;;;5074005;28;20025;-68
2023/09/24 03:23:30;;;;;;;5.53;3.45;;;;;;;;;;5073881;28;20166;-69
2023/09/24 03:25:55;;;;;;;5.30;3.60;;;;;;;;;;5087214;28;20020;-68
2023/09/24 03:28:20;;;;;;;5.07;3.30;;;;;;;;;;5073541;28;20098;-69
2023/09/24 03:30:46;;;;;;;7.82;3.67;;;;;;;;;;5078491;28;20560;-68
2023/09/24 03:33:11;;;;;;;12.20;3.65;;;;;;;;;;5080794;28;20035;-69
2023/09/24 03:35:36;;;;;;;7.10;4.03;;;;;;;;;;5085840;28;20076;-70
2023/09/24 03:38:01;;;;;;;6.72;3.78;;;;;;;;;;5073405;28;20379;-70
2023/09/24 03:40:27;;;;;;;7.85;4.32;;;;;;;;;;5074278;28;20028;-69
2023/09/24 03:42:53;;;;;;;6.18;2.80;;;;;;;;;;5076060;28;20035;-67
2023/09/24 03:45:19;;;;;;;4.70;3.30;;;;;;;;;;5075411;28;20066;-70
2023/09/24 03:47:48;;;;;;;4.80;3.20;;;;;;;;;;5076642;28;20043;-68
2023/09/24 03:50:14;;;;;;;6.55;3.65;;;;;;;;;;5085694;28;20025;-69
2023/09/24 03:52:57;;;;;;;9.15;3.90;;;;;;;;;;5075251;28;20024;-70
2023/09/24 03:55:23;;;;;;;8.52;3.75;;;;;;;;;;5074194;28;20029;-67
2023/09/24 03:57:48;;;;;;;7.30;3.63;;;;;;;;;;5075520;28;20394;-67
2023/09/24 04:00:21;;;;;;;5.30;3.40;;;;;;;;;;5074155;28;20078;-67
2023/09/24 04:02:47;;;;;;;9.15;4.63;;;;;;;;;;5074663;28;20028;-67
2023/09/24 04:05:17;;;;;;;7.22;4.22;;;;;;;;;;5074547;28;20517;-68
2023/09/24 04:07:43;;;;;;;6.80;4.07;;;;;;;;;;5089306;28;20111;-67
2023/09/24 04:10:08;;;;;;;7.32;4.28;;;;;;;;;;5076733;28;20047;-68
2023/09/24 04:12:34;;;;;;;6.45;4.00;;;;;;;;;;5086386;28;20439;-67
2023/09/24 04:15:03;;;;;;;6.85;4.15;;;;;;;;;;5074814;28;20056;-68
2023/09/24 04:17:29;;;;;;;6.05;3.70;;;;;;;;;;5092166;28;20062;-67
2023/09/24 04:19:54;;;;;;;7.13;4.07;;;;;;;;;;5078586;28;20502;-68
2023/09/24 04:22:20;;;;;;;7.20;3.95;;;;;;;;;;5083024;28;20028;-68
2023/09/24 04:24:45;;;;;;;7.97;3.63;;;;;;;;;;5087138;28;20383;-68
2023/09/24 04:27:10;;;;;;;4.75;3.20;;;;;;;;;;5083045;28;20039;-68
2023/09/24 04:29:36;;;;;;;6.68;4.07;;;;;;;;;;5085957;28;20035;-67
2023/09/24 04:32:01;;;;;;;5.50;3.53;;;;;;;;;;5091182;28;20128;-68
2023/09/24 04:34:27;;;;;;;7.32;3.88;;;;;;;;;;5089449;28;20559;-68
2023/09/24 04:36:52;;;;;;;5.45;4.13;;;;;;;;;;5090743;28;20027;-69
2023/09/24 04:39:18;;;;;;;8.38;4.60;;;;;;;;;;5085314;28;20490;-68
2023/09/24 04:41:43;;;;;;;11.05;4.22;;;;;;;;;;5084520;28;20031;-67
2023/09/24 04:44:08;;;;;;;6.13;4.07;;;;;;;;;;5082546;28;20470;-67
2023/09/24 04:46:34;;;;;;;13.13;4.40;;;;;;;;;;5083044;28;20047;-68
2023/09/24 04:49:00;;;;;;;6.68;3.72;;;;;;;;;;5084402;28;20027;-69
2023/09/24 04:51:27;;;;;;;6.72;3.75;;;;;;;;;;5086610;28;20020;-69
2023/09/24 04:53:52;;;;;;;5.78;3.42;;;;;;;;;;5088789;28;20102;-68
2023/09/24 04:56:18;;;;;;;10.80;4.55;;;;;;;;;;5085227;28;20107;-69
2023/09/24 04:58:43;;;;;;;9.60;3.50;;;;;;;;;;5089333;28;20536;-68
2023/09/24 05:01:08;;;;;;;7.85;3.97;;;;;;;;;;5089084;28;20031;-69
2023/09/24 05:03:35;;;;;;;6.10;3.70;;;;;;;;;;5088322;28;20020;-68
2023/09/24 05:06:00;;;;;;;7.93;3.78;;;;;;;;;;5088386;28;20474;-68
2023/09/24 05:08:26;;;;;;;4.95;3.40;;;;;;;;;;5091571;28;20024;-68
2023/09/24 05:10:51;;;;;;;7.47;4.03;;;;;;;;;;5073888;28;20027;-68
2023/09/24 05:13:16;;;;;;;6.38;3.80;;;;;;;;;;5090992;28;20027;-69
2023/09/24 05:15:48;;;;;;;6.82;3.70;;;;;;;;;;5083067;28;20474;-69
2023/09/24 05:18:13;;;;;;;7.70;3.75;;;;;;;;;;5082252;28;20024;-69
2023/09/24 05:20:39;;;;;;;5.45;3.55;;;;;;;;;;5085415;28;20046;-68
2023/09/24 05:23:04;;;;;;;6.50;4.05;;;;;;;;;;5089268;28;20024;-68
2023/09/24 05:25:33;;;;;;;10.52;4.05;;;;;;;;;;5089965;28;20016;-69
2023/09/24 05:27:58;;;;;;;6.05;3.63;;;;;;;;;;5088569;28;20064;-69
2023/09/24 05:30:23;;;;;;;8.60;4.03;;;;;;;;;;5089610;28;20081;-68
2023/09/24 05:32:48;;;;;;;6.47;3.75;;;;;;;;;;5080242;28;20078;-68
2023/09/24 05:35:14;;;;;;;6.90;3.40;;;;;;;;;;5080711;28;20028;-68
2023/09/24 05:37:39;;;;;;;8.00;4.30;;;;;;;;;;5088633;28;20467;-69
2023/09/24 05:40:04;;;;;;;12.43;3.58;;;;;;;;;;5073740;28;20032;-68
2023/09/24 05:42:30;;;;;;;6.13;3.33;;;;;;;;;;5082288;28;20024;-69
2023/09/24 05:44:55;;;;;;;9.88;3.20;;;;;;;;;;5080636;28;20056;-69
2023/09/24 05:47:20;;;;;;;8.02;3.65;;;;;;;;;;5079796;28;20027;-68
2023/09/24 05:49:46;;;;;;;6.00;3.33;;;;;;;;;;5075875;28;20056;-69
2023/09/24 05:52:11;;;;;;;6.97;3.85;;;;;;;;;;5063779;28;20394;-68
2023/09/24 05:54:36;;;;;;;7.68;3.83;;;;;;;;;;5079254;28;20040;-68
2023/09/24 05:57:03;;;;;;;6.65;3.28;;;;;;;;;;5074473;28;20037;-68
2023/09/24 05:59:28;;;;;;;6.25;3.65;;;;;;;;;;5059467;28;20520;-68
2023/09/24 06:01:54;;;;;;;6.32;3.47;;;;;;;;;;5074113;28;20021;-68
2023/09/24 06:04:19;;;;;;;8.23;3.88;;;;;;;;;;5077759;28;20031;-68
2023/09/24 06:06:44;;;;;;;5.38;3.13;;;;;;;;;;5073444;28;20099;-69
2023/09/24 06:09:10;;;;;;;10.35;3.58;;;;;;;;;;5077049;28;20027;-69
2023/09/24 06:11:36;;;;;;;6.07;3.05;;;;;;;;;;5059477;28;20107;-69
2023/09/24 06:14:03;;;;;;;4.43;2.83;;;;;;;;;;5079330;28;20028;-68
2023/09/24 06:16:29;;;;;;;7.88;3.58;;;;;;;;;;5086955;28;20081;-68
2023/09/24 06:18:54;;;;;;;5.25;3.28;;;;;;;;;;5092502;28;20032;-69
2023/09/24 06:21:19;;;;;;;6.35;3.22;;;;;;;;;;5092592;28;20036;-68
2023/09/24 06:23:44;;;;;;;8.68;3.95;;;;;;;;;;5087501;28;20027;-68
2023/09/24 06:26:10;;;;;;;5.53;2.95;;;;;;;;;;5089752;28;20479;-68
2023/09/24 06:28:35;;;;;;;6.18;3.25;;;;;;;;;;5085207;28;20051;-69
2023/09/24 06:31:01;;;;;;;6.65;2.80;;;;;;;;;;5088432;28;20020;-68
2023/09/24 06:33:27;;;;;;;5.47;2.97;;;;;;;;;;5083417;28;20048;-69
2023/09/24 06:35:52;;;;;;;10.27;3.30;;;;;;;;;;5089667;28;20438;-69
2023/09/24 06:38:18;;;;;;;7.60;3.00;;;;;;;;;;5086005;28;20032;-69
2023/09/24 06:40:43;;;;;;;6.28;3.00;;;;;;;;;;5090011;28;20020;-69
2023/09/24 06:43:08;;;;;;;9.73;3.03;;;;;;;;;;5083919;28;20100;-68
2023/09/24 06:45:34;;;;;;;8.50;3.05;;;;;;;;;;5082855;28;20119;-68
2023/09/24 06:48:01;;;;;;;8.70;3.17;;;;;;;;;;5078117;28;20063;-69
2023/09/24 06:50:26;;;;;;;5.78;3.00;;;;;;;;;;5093342;28;20028;-68
2023/09/24 06:52:52;;;;;;;6.30;3.00;;;;;;;;;;5092615;28;20085;-68
2023/09/24 06:55:17;;;;;;;5.68;2.85;;;;;;;;;;5093027;28;20032;-69
2023/09/24 06:57:42;;;;;;;7.38;3.30;;;;;;;;;;5089705;28;20024;-68
2023/09/24 07:00:09;;;;;;;7.70;2.90;;;;;;;;;;5091038;28;20024;-69
2023/09/24 07:02:35;;;;;;;10.27;3.92;;;;;;;;;;5089336;28;20047;-69
2023/09/24 07:05:00;;;;;;;8.15;3.45;;;;;;;;;;5092997;28;20378;-68
2023/09/24 07:07:26;;;;;;;6.32;3.40;;;;;;;;;;5073695;28;20371;-68
2023/09/24 07:09:52;;;;;;;9.18;4.05;;;;;;;;;;5092272;28;20016;-67
2023/09/24 07:12:17;;;;;;;8.10;4.10;;;;;;;;;;5088477;28;20103;-68
2023/09/24 07:14:43;;;;;;;9.15;4.47;;;;;;;;;;5091011;28;20130;-69
2023/09/24 07:17:08;;;;;;;8.15;4.38;;;;;;;;;;5085878;28;20533;-69
2023/09/24 07:19:33;;;;;;;6.20;3.90;;;;;;;;;;5073238;28;20039;-68
2023/09/24 07:21:58;;;;;;;5.55;3.30;;;;;;;;;;5086693;28;20376;-68
2023/09/24 07:24:24;;;;;;;5.38;3.67;;;;;;;;;;5072855;28;20115;-68
2023/09/24 07:26:50;;;;;;;8.82;3.63;;;;;;;;;;5085519;28;20032;-71
2023/09/24 07:29:15;;;;;;;4.18;3.08;;;;;;;;;;5074525;28;20025;-69
2023/09/24 07:31:40;;;;;;;9.70;3.47;;;;;;;;;;5091323;28;20776;-68
2023/09/24 07:34:07;;;;;;;7.28;2.97;;;;;;;;;;5092430;28;20036;-68
2023/09/24 07:36:32;;;;;;;6.15;2.90;;;;;;;;;;5087063;28;20521;-68
2023/09/24 07:38:58;;;;;;;6.57;2.97;;;;;;;;;;5078018;28;20027;-68
2023/09/24 07:41:23;;;;;;;6.47;3.00;;;;;;;;;;5079189;28;20451;-68
2023/09/24 07:43:48;;;;;;;4.85;2.67;;;;;;;;;;5076014;28;20052;-68
2023/09/24 07:46:19;;;;;;;6.10;2.88;;;;;;;;;;5076416;28;20016;-68
2023/09/24 07:48:45;;;;;;;5.90;2.38;;;;;;;;;;5073141;28;20024;-68
2023/09/24 07:51:13;;;;;;;5.72;2.95;;;;;;;;;;5077502;28;20387;-68
2023/09/24 07:53:39;;;;;;;4.90;2.58;;;;;;;;;;5089342;28;20081;-68
2023/09/24 07:56:09;;;;;;;6.95;2.97;;;;;;;;;;5086193;28;20033;-68
2023/09/24 07:58:38;;;;;;;5.32;2.33;;;;;;;;;;5092166;28;20012;-68
2023/09/24 08:01:03;;;;;;;6.88;2.85;;;;;;;;;;5086810;28;20051;-68
2023/09/24 08:03:29;;;;;;;4.38;2.13;;;;;;;;;;5083818;28;20538;-69
2023/09/24 08:05:55;;;;;;;5.40;2.10;;;;;;;;;;5086267;28;20020;-68
2023/09/24 08:08:20;;;;;;;3.65;2.10;;;;;;;;;;5086750;28;20024;-68
2023/09/24 08:10:45;;;;;;;5.72;2.25;;;;;;;;;;5080438;28;20031;-68
2023/09/24 08:13:10;;;;;;;4.45;2.10;;;;;;;;;;5050113;28;20082;-68
2023/09/24 08:15:36;;;;;;;5.05;1.80;;;;;;;;;;5039869;28;20900;-68
2023/09/24 08:18:02;;;;;;;4.22;2.08;;;;;;;;;;5047359;28;20027;-69
2023/09/24 08:20:27;;;;;;;5.10;2.17;;;;;;;;;;5039324;28;20911;-69
2023/09/24 08:22:53;;;;;;;7.10;2.30;;;;;;;;;;5046249;28;20024;-69
2023/09/24 08:25:18;;;;;;;8.07;1.92;;;;;;;;;;5046713;28;20127;-69
2023/09/24 08:27:44;;;;;;;3.15;1.48;;;;;;;;;;5042537;28;20040;-68
2023/09/24 08:30:10;;;;;;;5.55;1.58;;;;;;;;;;5039945;28;20032;-67
2023/09/24 08:32:35;;;;;;;3.35;1.08;;;;;;;;;;5046598;28;21003;-69
2023/09/24 08:35:01;;;;;;;3.75;1.85;;;;;;;;;;5046955;28;20043;-68
2023/09/24 08:37:26;;;;;;;3.75;1.38;;;;;;;;;;5044104;28;20109;-68
2023/09/24 08:39:52;;;;;;;4.05;1.70;;;;;;;;;;5046087;28;20799;-68
2023/09/24 08:42:18;;;;;;;7.05;1.25;;;;;;;;;;5045702;28;20008;-68
2023/09/24 08:44:46;;;;;;;4.50;1.52;;;;;;;;;;5044461;28;20063;-67
2023/09/24 08:47:12;;;;;;;7.38;1.73;;;;;;;;;;5026195;28;20051;-67
2023/09/24 08:49:37;;;;;;;7.30;1.23;;;;;;;;;;5045457;28;20128;-67
2023/09/24 08:52:03;;;;;;;3.25;1.15;;;;;;;;;;5046056;28;20046;-68
2023/09/24 08:54:30;;;;;;;3.78;1.40;;;;;;;;;;5045721;28;20066;-68
2023/09/24 08:56:55;;;;;;;4.32;1.25;;;;;;;;;;5047678;28;20028;-68
2023/09/24 08:59:21;;;;;;;3.75;1.02;;;;;;;;;;5064979;28;20042;-65
2023/09/24 09:01:53;;;;;;;5.03;1.40;;;;;;;;;;5078205;28;20475;-68
2023/09/24 09:04:18;;;;;;;2.97;1.10;;;;;;;;;;5081466;28;20028;-68
2023/09/24 09:06:44;;;;;;;4.70;1.20;;;;;;;;;;5077941;28;20375;-67
2023/09/24 09:09:10;;;;;;;3.97;1.25;;;;;;;;;;5075927;28;20077;-68
2023/09/24 09:11:42;;;;;;;3.47;1.02;;;;;;;;;;5089957;28;20367;-67
2023/09/24 09:14:08;;;;;;;4.88;1.10;;;;;;;;;;5085588;28;20371;-68
2023/09/24 09:16:52;;;;;;;5.63;1.25;;;;;;;;;;5083395;28;20035;-67
2023/09/24 09:19:17;;;;;;;4.80;1.20;;;;;;;;;;5090188;28;20028;-68
2023/09/24 09:21:42;;;;;;;3.33;0.85;;;;;;;;;;5089052;28;20058;-68
2023/09/24 09:24:24;;;;;;;3.53;0.80;;;;;;;;;;5088845;28;20371;-68
2023/09/24 09:26:56;;;;;;;3.58;1.20;;;;;;;;;;5073367;28;20036;-68
2023/09/24 09:29:22;;;;;;;3.25;0.88;;;;;;;;;;5088179;28;20483;-68
2023/09/24 09:31:51;;;;;;;4.28;1.10;;;;;;;;;;5075873;28;20519;-68
2023/09/24 09:34:16;;;;;;;3.85;0.88;;;;;;;;;;5078291;28;20081;-68
2023/09/24 09:36:42;;;;;;;4.13;0.90;;;;;;;;;;5080962;28;20483;-68
2023/09/24 09:39:08;;;;;;;3.17;1.10;;;;;;;;;;5079876;28;20028;-68
2023/09/24 09:41:33;;;;;;;3.00;0.68;;;;;;;;;;5076382;28;20027;-68
2023/09/24 09:44:04;;;;;;;3.38;0.93;;;;;;;;;;5076796;28;20050;-68
2023/09/24 09:46:32;;;;;;;4.65;1.08;;;;;;;;;;5081977;28;20024;-68
2023/09/24 09:49:02;;;;;;;2.47;0.80;;;;;;;;;;5077224;28;20054;-68
2023/09/24 09:51:30;;;;;;;5.30;0.90;;;;;;;;;;5093305;28;20039;-68
2023/09/24 09:54:02;;;;;;;2.55;1.00;;;;;;;;;;5093855;28;20479;-68
2023/09/24 09:56:27;;;;;;;2.90;0.82;;;;;;;;;;5086339;28;20052;-69
2023/09/24 09:58:53;;;;;;;4.82;1.08;;;;;;;;;;5088148;28;20028;-69
2023/09/24 10:01:20;;;;;;;2.58;0.70;;;;;;;;;;5086738;28;20479;-69
2023/09/24 10:03:46;;;;;;;3.83;0.93;;;;;;;;;;5074200;28;20082;-69
2023/09/24 10:06:12;;;;;;;3.92;1.00;;;;;;;;;;5073758;28;20021;-69
2023/09/24 10:08:38;;;;;;;2.40;0.90;;;;;;;;;;5075582;28;20028;-69
2023/09/24 10:11:04;;;;;;;1.92;0.80;;;;;;;;;;5086649;28;20483;-69
2023/09/24 10:13:48;;;;;;;3.85;0.93;;;;;;;;;;5075769;28;20104;-69
2023/09/24 10:16:25;;;;;;;2.10;0.80;;;;;;;;;;5086353;28;20034;-69
2023/09/24 10:19:25;;;;;;;2.88;0.85;;;;;;;;;;5075341;28;20270;-68
2023/09/24 10:21:51;;;;;;;2.33;0.80;;;;;;;;;;5010088;28;20029;-68
2023/09/24 10:24:20;;;;;;;2.13;0.75;;;;;;;;;;5077128;28;20044;-69
2023/09/24 10:26:45;;;;;;;1.55;0.60;;;;;;;;;;5076483;28;20063;-68
2023/09/24 10:29:11;;;;;;;2.27;0.80;;;;;;;;;;5074112;28;20060;-69
2023/09/24 10:31:56;;;;;;;1.90;0.90;;;;;;;;;;5087860;28;20278;-69
2023/09/24 10:34:21;;;;;;;2.90;0.93;;;;;;;;;;5078325;28;20039;-69
2023/09/24 10:37:00;;;;;;;2.45;1.08;;;;;;;;;;5073845;28;20024;-68
2023/09/24 10:39:25;;;;;;;2.53;0.77;;;;;;;;;;5073869;28;20032;-69
2023/09/24 10:42:09;;;;;;;3.75;1.00;;;;;;;;;;5073844;28;20427;-68
2023/09/24 10:44:35;;;;;;;2.90;0.90;;;;;;;;;;5075017;28;20099;-68
2023/09/24 10:47:19;;;;;;;2.65;0.90;;;;;;;;;;5082460;28;20531;-68
2023/09/24 10:49:45;;;;;;;2.47;1.25;;;;;;;;;;5093193;28;20362;-68
2023/09/24 10:52:10;;;;;;;2.92;0.88;;;;;;;;;;5093061;28;20020;-68
2023/09/24 10:54:36;;;;;;;3.45;1.00;;;;;;;;;;5085936;28;20029;-68
2023/09/24 10:57:02;;;;;;;2.85;0.77;;;;;;;;;;5085058;28;20035;-68
2023/09/24 10:59:31;;;;;;;2.80;0.82;;;;;;;;;;5079601;28;20016;-68
2023/09/24 11:01:56;;;;;;;3.78;1.25;;;;;;;;;;5080968;28;20129;-68
2023/09/24 11:04:25;;;;;;;3.15;1.38;;;;;;;;;;5074857;28;20039;-68
2023/09/24 11:06:50;;;;;;;2.50;0.98;;;;;;;;;;5085604;28;20039;-68
2023/09/24 11:09:20;;;;;;;3.58;1.10;;;;;;;;;;5075082;28;20016;-68
2023/09/24 11:11:45;;;;;;;2.85;1.27;;;;;;;;;;5074259;28;20028;-68
2023/09/24 11:14:22;;;;;;;3.03;1.10;;;;;;;;;;5073592;28;20029;-68
2023/09/24 11:16:48;;;;;;;5.63;0.95;;;;;;;;;;5086336;28;20534;-68
2023/09/24 11:19:13;;;;;;;2.55;1.00;;;;;;;;;;5082872;28;20115;-68
2023/09/24 11:21:38;;;;;;;2.88;0.90;;;;;;;;;;5077792;28;20024;-68
2023/09/24 11:24:19;;;;;;;3.47;1.00;;;;;;;;;;5082643;28;20126;-69
2023/09/24 11:26:45;;;;;;;3.00;1.02;;;;;;;;;;5075935;28;20416;-68
2023/09/24 11:29:10;;;;;;;2.40;0.90;;;;;;;;;;5083717;28;20030;-68
2023/09/24 11:31:35;;;;;;;2.30;0.82;;;;;;;;;;5092113;28;20020;-68
2023/09/24 11:34:01;;;;;;;2.67;0.90;;;;;;;;;;5092330;28;20402;-68
2023/09/24 11:36:28;;;;;;;2.63;1.17;;;;;;;;;;5090301;28;20024;-69
2023/09/24 11:39:03;;;;;;;2.60;0.93;;;;;;;;;;5092184;28;20278;-69
2023/09/24 11:41:28;;;;;;;2.17;0.93;;;;;;;;;;5078444;28;20105;-69
2023/09/24 11:43:57;;;;;;;2.17;0.90;;;;;;;;;;5076855;28;20079;-69
2023/09/24 11:46:28;;;;;;;2.13;0.80;;;;;;;;;;5082687;28;20274;-69
2023/09/24 11:48:55;;;;;;;3.03;0.90;;;;;;;;;;5085746;28;20043;-68
2023/09/24 11:51:20;;;;;;;3.58;1.38;;;;;;;;;;5075749;28;20028;-69
2023/09/24 11:53:46;;;;;;;3.55;1.13;;;;;;;;;;5084307;28;20408;-68
2023/09/24 11:56:11;;;;;;;2.78;1.15;;;;;;;;;;5091301;28;20047;-68
2023/09/24 11:58:37;;;;;;;3.72;1.17;;;;;;;;;;5091765;28;20035;-68
2023/09/24 12:01:04;;;;;;;2.22;0.80;;;;;;;;;;5074709;28;20525;-68
2023/09/24 12:03:29;;;;;;;2.28;1.00;;;;;;;;;;5064113;28;20032;-66
2023/09/24 12:05:54;;;;;;;2.58;0.85;;;;;;;;;;5073202;28;20114;-69
2023/09/24 12:08:20;;;;;;;2.35;0.85;;;;;;;;;;5089262;28;20034;-67
2023/09/24 12:10:50;;;;;;;2.23;1.00;;;;;;;;;;5048841;28;20024;-66
2023/09/24 12:13:17;;;;;;;3.00;0.90;;;;;;;;;;5048003;28;20285;-67
2023/09/24 12:15:43;;;;;;;2.30;0.95;;;;;;;;;;5020182;28;20771;-66
2023/09/24 12:18:09;;;;;;;2.22;0.98;;;;;;;;;;5040416;28;20091;-69
2023/09/24 12:20:35;;;;;;;2.55;0.93;;;;;;;;;;5042702;28;20020;-69
2023/09/24 12:23:01;;;;;;;2.58;1.10;;;;;;;;;;5073425;28;20051;-68
2023/09/24 12:25:27;;;;;;;1.92;0.95;;;;;;;;;;5086411;28;20106;-68
2023/09/24 12:27:52;;;;;;;1.77;0.70;;;;;;;;;;5091829;28;20446;-69
2023/09/24 12:30:17;;;;;;;3.70;1.35;;;;;;;;;;5090618;28;20028;-68
2023/09/24 12:32:43;;;;;;;2.30;1.00;;;;;;;;;;5091003;28;20103;-69
2023/09/24 12:35:10;;;;;;;2.17;0.85;;;;;;;;;;5090231;28;20094;-70
2023/09/24 12:37:36;;;;;;;2.42;1.10;;;;;;;;;;5091393;28;20042;-68
2023/09/24 12:40:07;;;;;;;2.67;0.95;;;;;;;;;;5089941;28;20024;-69
2023/09/24 12:42:36;;;;;;;2.30;1.00;;;;;;;;;;5082000;28;20067;-68
2023/09/24 12:45:02;;;;;;;2.70;1.05;;;;;;;;;;5085668;28;20063;-68
2023/09/24 12:47:28;;;;;;;3.80;0.98;;;;;;;;;;5088831;28;20024;-68
2023/09/24 12:50:03;;;;;;;2.50;0.90;;;;;;;;;;5084460;28;20021;-69
2023/09/24 12:52:35;;;;;;;3.22;1.17;;;;;;;;;;5070664;28;20380;-69
2023/09/24 12:55:01;;;;;;;2.85;1.08;;;;;;;;;;5059501;28;20032;-69
2023/09/24 12:57:26;;;;;;;2.75;0.75;;;;;;;;;;5030169;28;20078;-69
2023/09/24 12:59:51;;;;;;;2.70;1.10;;;;;;;;;;5045706;28;20093;-69
2023/09/24 13:02:17;;;;;;;2.10;0.90;;;;;;;;;;5034542;28;20058;-68
2023/09/24 13:04:43;;;;;;;2.03;0.80;;;;;;;;;;5045702;28;20266;-68
2023/09/24 13:07:08;;;;;;;5.75;1.40;;;;;;;;;;5042325;28;20052;-68
2023/09/24 13:09:34;;;;;;;2.78;1.00;;;;;;;;;;5060616;28;20420;-68
2023/09/24 13:12:00;;;;;;;1.65;0.70;;;;;;;;;;5069435;28;20032;-69
2023/09/24 13:14:25;;;;;;;2.03;0.75;;;;;;;;;;5079362;28;20027;-69
2023/09/24 13:16:52;;;;;;;1.90;0.88;;;;;;;;;;5080505;28;20075;-69
2023/09/24 13:19:17;;;;;;;3.05;1.17;;;;;;;;;;5086787;28;20542;-68
2023/09/24 13:21:43;;;;;;;2.10;0.80;;;;;;;;;;5079866;28;20107;-68
2023/09/24 13:24:08;;;;;;;3.22;1.20;;;;;;;;;;5086989;28;20028;-69
2023/09/24 13:26:34;;;;;;;4.10;1.13;;;;;;;;;;5090769;28;20048;-68
2023/09/24 13:28:59;;;;;;;3.38;0.93;;;;;;;;;;5092826;28;20035;-68
2023/09/24 13:31:24;;;;;;;2.17;0.80;;;;;;;;;;5091536;28;20012;-68
2023/09/24 13:33:50;;;;;;;2.50;0.90;;;;;;;;;;5092108;28;20051;-69
2023/09/24 13:36:15;;;;;;;3.13;1.00;;;;;;;;;;5088264;28;20107;-69
2023/09/24 13:38:41;;;;;;;3.35;0.98;;;;;;;;;;5092541;28;20027;-69
2023/09/24 13:41:09;;;;;;;2.83;1.10;;;;;;;;;;5091844;28;20033;-69
2023/09/24 13:43:34;;;;;;;2.33;0.93;;;;;;;;;;5093118;28;20475;-69
2023/09/24 13:46:00;;;;;;;3.23;1.00;;;;;;;;;;5092183;28;20078;-69
2023/09/24 13:48:25;;;;;;;2.22;0.80;;;;;;;;;;5093721;28;20624;-69
2023/09/24 13:50:51;;;;;;;2.00;0.80;;;;;;;;;;5078964;28;20095;-69
2023/09/24 13:53:17;;;;;;;3.63;1.10;;;;;;;;;;5064202;28;20776;-70
2023/09/24 13:55:43;;;;;;;3.75;1.15;;;;;;;;;;5086724;28;20031;-69
2023/09/24 13:58:09;;;;;;;2.55;0.98;;;;;;;;;;5089337;28;20077;-69
2023/09/24 14:00:34;;;;;;;2.65;1.08;;;;;;;;;;5081472;28;20352;-69
2023/09/24 14:02:59;;;;;;;2.85;1.05;;;;;;;;;;5068627;28;20431;-70
2023/09/24 14:05:26;;;;;;;4.05;1.00;;;;;;;;;;5089865;28;20438;-69
2023/09/24 14:12:16;;;;;;;2.08;0.75;;;;;;;;;;5090849;28;20106;-69
2023/09/24 14:13:21;;;;;;;;;;;;;;;;;;5094103;28;20043;-69
2023/09/24 14:15:46;;;;;;;2.13;0.80;;;;;;;;;;5092364;28;19916;-70
2023/09/24 14:18:11;;;;;;;2.33;0.95;;;;;;;;;;5089997;28;20024;-68
2023/09/24 14:20:37;;;;;;;3.03;1.00;;;;;;;;;;5092643;28;20371;-69
2023/09/24 14:23:02;;;;;;;2.53;0.80;;;;;;;;;;5091972;28;20277;-69
2023/09/24 14:25:27;;;;;;;1.60;0.70;;;;;;;;;;5090256;28;20318;-69
2023/09/24 14:27:53;;;;;;;3.10;1.00;;;;;;;;;;5092201;28;20462;-70
2023/09/24 14:30:18;;;;;;;2.28;1.10;;;;;;;;;;5085705;28;20262;-70
2023/09/24 14:32:43;;;;;;;4.07;1.80;;;;;;;;;;5084169;28;20040;-69
2023/09/24 14:35:09;;;;;;;3.08;1.33;;;;;;;;;;5088057;28;20309;-69
2023/09/24 14:37:34;;;;;;;2.85;1.23;;;;;;;;;;5079261;28;20033;-69
2023/09/24 14:39:59;;;;;;;2.30;1.20;;;;;;;;;;5090597;28;20024;-69
2023/09/24 14:42:25;;;;;;;2.53;1.10;;;;;;;;;;5084495;28;21003;-70